createdAt,value
2019-01-21T00:00:52.226Z,40.48
2019-01-21T00:03:21.490Z,38.15
2019-01-21T00:05:51.836Z,33.30
2019-01-21T00:08:20.385Z,36.58
2019-01-21T00:10:48.795Z,34.10
2019-01-21T00:13:17.246Z,34.00
2019-01-21T00:15:45.929Z,35.23
2019-01-21T00:18:15.100Z,33.02
2019-01-21T00:20:43.611Z,32.55
2019-01-21T00:23:12.145Z,32.42
2019-01-21T00:25:40.602Z,32.10
2019-01-21T00:28:09.055Z,34.70
2019-01-21T00:30:37.560Z,31.15
2019-01-21T00:33:06.118Z,33.40
2019-01-21T00:35:34.599Z,30.85
2019-01-21T00:38:03.183Z,31.42
2019-01-21T00:40:31.663Z,31.82
2019-01-21T00:43:00.146Z,40.48
2019-01-21T00:45:28.727Z,35.73
2019-01-21T00:47:57.211Z,34.38
2019-01-21T00:50:25.693Z,29.02
2019-01-21T00:52:54.199Z,29.35
2019-01-21T00:55:22.755Z,30.05
2019-01-21T00:58:10.589Z,30.50
2019-01-21T01:00:38.997Z,31.93
2019-01-21T01:03:07.752Z,32.38
2019-01-21T01:05:36.238Z,28.67
2019-01-21T01:08:05.587Z,28.67
2019-01-21T01:10:34.078Z,29.72
2019-01-21T01:13:04.633Z,28.23
2019-01-21T01:15:35.245Z,31.75
2019-01-21T01:18:05.869Z,31.65
2019-01-21T01:20:34.394Z,26.97
2019-01-21T01:23:02.876Z,29.85
2019-01-21T01:25:31.356Z,25.60
2019-01-21T01:27:59.847Z,28.92
2019-01-21T01:30:28.320Z,27.40
2019-01-21T01:32:56.759Z,25.25
2019-01-21T01:35:25.281Z,25.17
2019-01-21T01:37:53.762Z,28.02
2019-01-21T01:40:22.244Z,32.58
2019-01-21T01:42:50.828Z,30.57
2019-01-21T01:45:20.623Z,27.40
2019-01-21T01:47:50.856Z,35.25
2019-01-21T01:50:19.348Z,31.80
2019-01-21T01:52:47.815Z,31.00
2019-01-21T01:55:16.303Z,27.32
2019-01-21T01:57:44.751Z,28.00
2019-01-21T02:00:14.190Z,28.57
2019-01-21T02:02:42.775Z,28.77
2019-01-21T02:05:11.255Z,31.25
2019-01-21T02:07:39.707Z,28.20
2019-01-21T02:10:09.752Z,30.27
2019-01-21T02:12:38.922Z,30.00
2019-01-21T02:15:08.967Z,25.30
2019-01-21T02:17:37.550Z,27.58
2019-01-21T02:20:07.804Z,30.70
2019-01-21T02:22:37.487Z,29.20
2019-01-21T02:25:06.734Z,29.52
2019-01-21T02:27:36.654Z,32.35
2019-01-21T02:30:09.387Z,28.75
2019-01-21T02:32:39.345Z,31.12
2019-01-21T02:35:15.359Z,27.75
2019-01-21T02:37:45.982Z,28.62
2019-01-21T02:40:18.947Z,29.18
2019-01-21T02:42:48.896Z,31.42
2019-01-21T02:45:24.943Z,29.80
2019-01-21T02:48:00.310Z,31.60
2019-01-21T02:50:30.499Z,33.00
2019-01-21T02:53:18.263Z,34.18
2019-01-21T02:55:49.176Z,27.20
2019-01-21T02:58:28.191Z,31.57
2019-01-21T03:01:07.231Z,33.35
2019-01-21T03:03:39.912Z,34.55
2019-01-21T03:06:24.854Z,31.87
2019-01-21T03:09:00.971Z,30.75
2019-01-21T03:11:47.548Z,27.13
2019-01-21T03:14:34.253Z,32.23
2019-01-21T03:17:20.777Z,28.00
2019-01-21T03:19:50.775Z,31.25
2019-01-21T03:22:23.555Z,27.70
2019-01-21T03:25:10.233Z,29.27
2019-01-21T03:27:49.201Z,30.52
2019-01-21T03:30:28.526Z,33.58
2019-01-21T03:32:58.444Z,33.92
2019-01-21T03:35:46.052Z,32.38
2019-01-21T03:38:18.968Z,34.80
2019-01-21T03:41:00.953Z,26.75
2019-01-21T03:43:43.188Z,35.03
2019-01-21T03:46:16.040Z,37.33
2019-01-21T03:48:45.654Z,34.58
2019-01-21T03:51:32.410Z,32.05
2019-01-21T03:54:02.373Z,37.00
2019-01-21T03:56:32.289Z,30.35
2019-01-21T03:59:19.039Z,33.98
2019-01-21T04:01:48.961Z,35.15
2019-01-21T04:04:24.675Z,32.03
2019-01-21T04:06:54.783Z,32.95
2019-01-21T04:09:33.714Z,29.80
2019-01-21T04:12:09.465Z,34.55
2019-01-21T04:14:42.198Z,30.97
2019-01-21T04:17:18.302Z,32.83
2019-01-21T04:19:51.286Z,29.37
2019-01-21T04:22:21.248Z,30.62
2019-01-21T04:25:00.247Z,28.77
2019-01-21T04:27:35.981Z,34.50
2019-01-21T04:30:18.287Z,30.48
2019-01-21T04:33:03.439Z,34.73
2019-01-21T04:35:34.421Z,33.73
2019-01-21T04:38:04.344Z,30.82
2019-01-21T04:40:37.094Z,29.98
2019-01-21T04:43:25.444Z,37.20
2019-01-21T04:45:58.121Z,29.95
2019-01-21T04:48:33.879Z,36.77
2019-01-21T04:51:06.553Z,39.58
2019-01-21T04:53:45.887Z,35.50
2019-01-21T04:56:15.796Z,36.85
2019-01-21T04:58:48.408Z,39.70
2019-01-21T05:01:18.371Z,33.50
2019-01-21T05:03:49.915Z,37.42
2019-01-21T05:06:25.803Z,36.53
2019-01-21T05:08:55.821Z,34.70
2019-01-21T05:11:25.696Z,35.92
2019-01-21T05:14:12.751Z,33.73
2019-01-21T05:16:55.064Z,35.25
2019-01-21T05:19:28.043Z,31.85
2019-01-21T05:21:58.062Z,32.20
2019-01-21T05:24:31.046Z,32.20
2019-01-21T05:27:16.046Z,31.37
2019-01-21T05:29:55.350Z,30.30
2019-01-21T05:32:42.207Z,32.08
2019-01-21T05:35:27.246Z,36.08
2019-01-21T05:38:09.947Z,33.35
2019-01-21T05:40:56.451Z,29.27
2019-01-21T05:43:29.088Z,35.43
2019-01-21T05:45:59.046Z,37.73
2019-01-21T05:48:48.971Z,31.95
2019-01-21T05:51:33.648Z,32.48
2019-01-21T05:54:03.706Z,29.60
2019-01-21T05:56:33.659Z,34.98
2019-01-21T05:59:03.586Z,36.30
2019-01-21T06:01:48.711Z,42.30
2019-01-21T06:04:21.491Z,40.12
2019-01-21T06:07:03.263Z,32.55
2019-01-21T06:09:33.301Z,34.08
2019-01-21T06:12:03.342Z,35.17
2019-01-21T06:14:36.227Z,34.03
2019-01-21T06:17:06.173Z,35.43
2019-01-21T06:19:38.898Z,37.60
2019-01-21T06:22:08.823Z,38.30
2019-01-21T06:24:38.748Z,36.40
2019-01-21T06:27:26.874Z,35.05
2019-01-21T06:29:59.843Z,36.30
2019-01-21T06:32:32.507Z,36.75
2019-01-21T06:35:02.429Z,38.78
2019-01-21T06:37:35.635Z,34.45
2019-01-21T06:40:20.652Z,36.68
2019-01-21T06:43:05.886Z,36.25
2019-01-21T06:45:47.984Z,35.33
2019-01-21T06:48:26.625Z,39.53
2019-01-21T06:50:59.319Z,40.30
2019-01-21T06:53:35.263Z,35.03
2019-01-21T06:56:22.049Z,39.73
2019-01-21T06:58:57.824Z,63.92
2019-01-21T07:01:27.920Z,94.97
2019-01-21T07:04:00.827Z,72.97
2019-01-21T07:06:30.822Z,74.37
2019-01-21T07:09:04.627Z,70.37
2019-01-21T07:11:37.286Z,76.95
2019-01-21T07:14:22.328Z,87.82
2019-01-21T07:16:55.488Z,86.15
2019-01-21T07:19:31.730Z,46.33
2019-01-21T07:22:04.410Z,77.12
2019-01-21T07:24:41.113Z,46.73
2019-01-21T07:27:11.035Z,40.33
2019-01-21T07:29:59.059Z,50.52
2019-01-21T07:32:31.915Z,44.45
2019-01-21T07:35:18.333Z,61.23
2019-01-21T07:38:04.763Z,49.93
2019-01-21T07:40:37.564Z,45.70
2019-01-21T07:43:07.489Z,43.65
2019-01-21T07:45:41.239Z,38.83
2019-01-21T07:48:12.985Z,51.92
2019-01-21T07:50:45.888Z,42.13
2019-01-21T07:53:27.970Z,40.92
2019-01-21T07:56:14.545Z,41.98
2019-01-21T07:58:44.469Z,40.78
2019-01-21T08:01:14.387Z,38.58
2019-01-21T08:04:01.304Z,39.98
2019-01-21T08:06:31.336Z,43.98
2019-01-21T08:09:01.335Z,41.97
2019-01-21T08:11:34.133Z,40.80
2019-01-21T08:14:04.066Z,46.37
2019-01-21T08:16:39.801Z,41.90
2019-01-21T08:19:27.586Z,50.25
2019-01-21T08:22:15.934Z,66.70
2019-01-21T08:24:55.242Z,43.92
2019-01-21T08:27:37.207Z,37.88
2019-01-21T08:30:16.343Z,41.92
2019-01-21T08:32:49.022Z,54.67
2019-01-21T08:35:19.039Z,35.63
2019-01-21T08:37:49.257Z,65.32
2019-01-21T08:40:28.084Z,40.92
2019-01-21T08:43:03.767Z,45.90
2019-01-21T08:45:33.750Z,46.23
2019-01-21T08:48:03.642Z,58.92
2019-01-21T08:50:38.598Z,70.50
2019-01-21T08:53:11.525Z,41.15
2019-01-21T08:55:47.490Z,47.13
2019-01-21T08:58:17.454Z,42.83
2019-01-21T09:00:50.236Z,41.73
2019-01-21T09:03:29.271Z,38.10
2019-01-21T09:05:59.196Z,46.43
2019-01-21T09:08:41.279Z,47.20
2019-01-21T09:11:14.471Z,45.20
2019-01-21T09:13:44.379Z,43.03
2019-01-21T09:16:14.402Z,39.73
2019-01-21T09:18:55.446Z,41.00
2019-01-21T09:21:30.206Z,40.50
2019-01-21T09:24:23.269Z,38.93
2019-01-21T09:27:23.425Z,39.97
2019-01-21T09:30:14.396Z,47.17
2019-01-21T09:32:46.257Z,45.77
2019-01-21T09:35:39.260Z,65.63
2019-01-21T09:38:29.007Z,59.17
2019-01-21T09:41:03.719Z,59.17
2019-01-21T09:43:35.581Z,56.73
2019-01-21T09:46:40.925Z,54.87
2019-01-21T09:49:08.689Z,59.23
2019-01-21T09:51:38.500Z,52.60
2019-01-21T09:54:07.995Z,50.07
2019-01-21T09:56:39.540Z,53.97
2019-01-21T09:59:09.087Z,47.33
2019-01-21T10:01:38.160Z,51.13
2019-01-21T10:04:07.971Z,44.90
2019-01-21T10:06:43.187Z,46.83
2019-01-21T10:09:13.126Z,50.00
2019-01-21T10:12:01.370Z,45.50
2019-01-21T10:14:35.996Z,53.93
2019-01-21T10:17:16.519Z,47.63
2019-01-21T10:20:12.177Z,49.60
2019-01-21T10:23:11.279Z,52.87
2019-01-21T10:26:01.262Z,55.63
2019-01-21T10:28:39.164Z,45.80
2019-01-21T10:31:26.179Z,46.90
2019-01-21T10:34:33.060Z,46.60
2019-01-21T10:37:26.016Z,48.30
2019-01-21T10:40:28.489Z,46.80
2019-01-21T10:43:09.263Z,49.63
2019-01-21T10:45:39.283Z,48.17
2019-01-21T10:48:14.959Z,46.33
2019-01-21T10:50:50.677Z,47.90
2019-01-21T10:53:20.696Z,49.95
2019-01-21T10:56:03.002Z,52.75
2019-01-21T10:58:39.006Z,56.40
2019-01-21T11:01:17.946Z,56.00
2019-01-21T11:03:48.004Z,49.63
2019-01-21T11:06:21.093Z,48.90
2019-01-21T11:08:56.028Z,53.28
2019-01-21T11:11:26.043Z,58.25
2019-01-21T11:13:58.743Z,54.80
2019-01-21T11:16:34.886Z,58.35
2019-01-21T11:19:22.037Z,54.58
2019-01-21T11:21:51.869Z,51.10
2019-01-21T11:24:33.840Z,49.63
2019-01-21T11:27:10.004Z,52.20
2019-01-21T11:29:55.299Z,54.38
2019-01-21T11:32:41.956Z,51.05
2019-01-21T11:35:18.049Z,47.40
2019-01-21T11:37:53.943Z,51.68
2019-01-21T11:40:35.969Z,47.10
2019-01-21T11:43:11.619Z,45.30
2019-01-21T11:45:44.298Z,46.45
2019-01-21T11:48:14.198Z,41.42
2019-01-21T11:51:00.831Z,54.85
2019-01-21T11:53:39.546Z,49.67
2019-01-21T11:56:09.558Z,45.25
2019-01-21T11:58:39.472Z,47.20
2019-01-21T12:01:09.489Z,48.08
2019-01-21T12:03:45.240Z,59.10
2019-01-21T12:06:14.438Z,51.15
2019-01-21T12:08:56.846Z,48.23
2019-01-21T12:11:26.839Z,54.30
2019-01-21T12:13:59.649Z,52.38
2019-01-21T12:16:38.607Z,48.55
2019-01-21T12:19:11.235Z,48.08
2019-01-21T12:21:41.268Z,44.00
2019-01-21T12:24:11.232Z,47.27
2019-01-21T12:26:41.152Z,50.88
2019-01-21T12:29:13.873Z,52.55
2019-01-21T12:31:43.896Z,54.60
2019-01-21T12:34:22.924Z,58.78
2019-01-21T12:36:52.883Z,94.03
2019-01-21T12:39:25.778Z,104.47
2019-01-21T12:42:04.547Z,65.85
2019-01-21T12:45:02.519Z,57.13
2019-01-21T12:47:44.415Z,62.43
2019-01-21T12:50:31.167Z,63.30
2019-01-21T12:53:01.144Z,72.00
2019-01-21T12:55:31.056Z,68.92
2019-01-21T12:58:09.900Z,75.40
2019-01-21T13:00:42.863Z,68.85
2019-01-21T13:03:18.822Z,67.82
2019-01-21T13:05:51.736Z,70.40
2019-01-21T13:08:30.895Z,57.30
2019-01-21T13:11:10.172Z,60.67
2019-01-21T13:13:42.954Z,70.52
2019-01-21T13:16:15.728Z,71.85
2019-01-21T13:19:02.138Z,65.83
2019-01-21T13:21:37.783Z,65.28
2019-01-21T13:24:07.743Z,70.03
2019-01-21T13:26:37.719Z,62.83
2019-01-21T13:29:13.362Z,60.78
2019-01-21T13:31:43.279Z,68.65
2019-01-21T13:34:22.106Z,67.87
2019-01-21T13:36:54.785Z,69.35
2019-01-21T13:39:27.798Z,71.85
2019-01-21T13:42:00.555Z,66.60
2019-01-21T13:44:30.573Z,69.42
2019-01-21T13:47:03.558Z,71.77
2019-01-21T13:49:36.532Z,68.78
2019-01-21T13:52:18.551Z,77.37
2019-01-21T13:54:48.518Z,70.80
2019-01-21T13:57:18.439Z,74.42
2019-01-21T14:00:00.739Z,69.37
2019-01-21T14:02:30.694Z,72.37
2019-01-21T14:05:03.315Z,70.95
2019-01-21T14:07:45.427Z,58.65
2019-01-21T14:10:21.332Z,63.95
2019-01-21T14:12:57.079Z,63.65
2019-01-21T14:15:27.097Z,60.75
2019-01-21T14:17:59.879Z,69.45
2019-01-21T14:20:29.812Z,66.72
2019-01-21T14:23:05.750Z,62.55
2019-01-21T14:25:38.430Z,71.37
2019-01-21T14:28:11.263Z,61.50
2019-01-21T14:30:58.061Z,67.55
2019-01-21T14:33:28.039Z,67.00
2019-01-21T14:36:09.936Z,67.92
2019-01-21T14:38:39.953Z,59.77
2019-01-21T14:41:12.844Z,61.63
2019-01-21T14:43:59.421Z,73.02
2019-01-21T14:46:47.894Z,65.80
2019-01-21T14:49:23.607Z,66.28
2019-01-21T14:51:56.531Z,67.65
2019-01-21T14:54:26.461Z,69.72
2019-01-21T14:56:56.459Z,78.85
2019-01-21T14:59:38.452Z,69.17
2019-01-21T15:02:08.443Z,76.30
2019-01-21T15:04:44.351Z,66.05
2019-01-21T15:07:14.406Z,68.85
2019-01-21T15:10:21.617Z,79.47
2019-01-21T15:12:55.136Z,86.02
2019-01-21T15:15:25.075Z,79.40
2019-01-21T15:17:58.130Z,82.27
2019-01-21T15:20:28.317Z,67.25
2019-01-21T15:22:58.271Z,64.47
2019-01-21T15:25:40.170Z,71.17
2019-01-21T15:28:14.656Z,75.70
2019-01-21T15:30:53.213Z,68.67
2019-01-21T15:33:31.084Z,76.15
2019-01-21T15:36:18.077Z,75.30
2019-01-21T15:39:01.673Z,68.97
2019-01-21T15:41:50.700Z,71.05
2019-01-21T15:44:50.103Z,68.42
2019-01-21T15:47:28.765Z,70.60
2019-01-21T15:50:09.418Z,75.95
2019-01-21T15:52:59.403Z,106.60
2019-01-21T15:55:46.319Z,88.12
2019-01-21T15:58:19.028Z,87.85
2019-01-21T16:00:54.098Z,87.53
2019-01-21T16:03:24.064Z,73.92
2019-01-21T16:06:10.551Z,71.07
2019-01-21T16:08:46.611Z,75.15
2019-01-21T16:11:16.627Z,89.42
2019-01-21T16:13:46.644Z,77.20
2019-01-21T16:16:35.093Z,83.78
2019-01-21T16:19:08.080Z,82.47
2019-01-21T16:21:40.953Z,70.12
2019-01-21T16:24:10.873Z,82.25
2019-01-21T16:26:40.798Z,89.30
2019-01-21T16:29:10.811Z,90.60
2019-01-21T16:31:39.998Z,82.75
2019-01-21T16:34:15.708Z,88.92
2019-01-21T16:37:02.143Z,83.20
2019-01-21T16:39:41.150Z,79.35
2019-01-21T16:42:16.412Z,87.33
2019-01-21T16:44:46.546Z,90.95
2019-01-21T16:47:15.695Z,95.17
2019-01-21T16:49:44.197Z,83.87
2019-01-21T16:52:13.344Z,80.70
2019-01-21T16:54:41.901Z,84.13
2019-01-21T16:57:29.664Z,92.75
2019-01-21T16:59:58.118Z,84.85
2019-01-21T17:02:27.010Z,79.32
2019-01-21T17:04:55.506Z,78.67
2019-01-21T17:07:24.064Z,78.92
2019-01-21T17:09:52.557Z,73.42
2019-01-21T17:12:21.140Z,74.62
2019-01-21T17:14:49.596Z,70.37
2019-01-21T17:17:18.056Z,68.92
2019-01-21T17:19:46.643Z,68.10
2019-01-21T17:22:15.104Z,77.40
2019-01-21T17:24:43.755Z,70.00
2019-01-21T17:27:12.254Z,84.03
2019-01-21T17:29:40.916Z,77.75
2019-01-21T17:32:10.099Z,76.12
2019-01-21T17:34:39.660Z,78.37
2019-01-21T17:37:08.215Z,84.60
2019-01-21T17:39:36.723Z,80.28
2019-01-21T17:42:05.175Z,75.60
2019-01-21T17:44:33.642Z,83.25
2019-01-21T17:47:02.226Z,79.65
2019-01-21T17:49:30.799Z,78.57
2019-01-21T17:51:59.498Z,81.72
2019-01-21T17:54:34.612Z,71.57
2019-01-21T17:56:58.507Z,81.57
2019-01-21T17:59:26.972Z,69.35
2019-01-21T18:01:55.571Z,72.08
2019-01-21T18:04:24.051Z,77.47
2019-01-21T18:06:52.508Z,81.85
2019-01-21T18:09:21.260Z,72.58
2019-01-21T18:11:49.808Z,71.57
2019-01-21T18:14:18.267Z,67.25
2019-01-21T18:16:46.875Z,72.55
2019-01-21T18:19:15.417Z,70.75
2019-01-21T18:21:44.039Z,65.12
2019-01-21T18:24:12.568Z,78.70
2019-01-21T18:26:41.308Z,71.42
2019-01-21T18:29:09.782Z,77.80
2019-01-21T18:31:38.367Z,68.95
2019-01-21T18:34:06.834Z,82.27
2019-01-21T18:36:35.286Z,82.85
2019-01-21T18:39:05.353Z,74.12
2019-01-21T18:41:33.935Z,81.08
2019-01-21T18:44:02.592Z,78.02
2019-01-21T18:46:31.104Z,74.00
2019-01-21T18:48:59.551Z,68.67
2019-01-21T18:51:28.007Z,73.10
2019-01-21T18:53:56.511Z,73.55
2019-01-21T18:56:25.183Z,72.05
2019-01-21T18:58:53.815Z,71.33
2019-01-21T19:01:22.359Z,76.67
2019-01-21T19:04:10.235Z,82.50
2019-01-21T19:06:38.740Z,77.60
2019-01-21T19:09:11.937Z,75.08
2019-01-21T19:11:40.490Z,73.57
2019-01-21T19:14:08.978Z,84.75
2019-01-21T19:16:37.550Z,76.87
2019-01-21T19:19:06.548Z,76.40
2019-01-21T19:21:34.998Z,74.27
2019-01-21T19:24:04.227Z,78.37
2019-01-21T19:26:32.704Z,76.57
2019-01-21T19:29:01.208Z,77.67
2019-01-21T19:31:29.980Z,87.90
2019-01-21T19:33:58.723Z,90.72
2019-01-21T19:36:27.219Z,99.95
2019-01-21T19:38:56.370Z,91.20
2019-01-21T19:41:24.820Z,96.02
2019-01-21T19:43:53.309Z,89.35
2019-01-21T19:46:21.827Z,79.10
2019-01-21T19:48:50.575Z,86.55
2019-01-21T19:51:19.165Z,88.78
2019-01-21T19:53:47.979Z,82.95
2019-01-21T19:56:16.468Z,74.92
2019-01-21T19:58:45.009Z,77.03
2019-01-21T20:01:13.554Z,80.07
2019-01-21T20:03:42.327Z,77.12
2019-01-21T20:06:11.156Z,85.38
2019-01-21T20:08:39.757Z,84.05
2019-01-21T20:11:08.219Z,84.28
2019-01-21T20:13:36.718Z,74.60
2019-01-21T20:16:05.437Z,86.22
2019-01-21T20:18:34.048Z,82.80
2019-01-21T20:21:02.492Z,81.92
2019-01-21T20:23:31.461Z,77.92
2019-01-21T20:25:59.862Z,85.17
2019-01-21T20:28:28.326Z,85.25
2019-01-21T20:30:56.830Z,73.20
2019-01-21T20:33:25.289Z,78.85
2019-01-21T20:35:53.718Z,79.00
2019-01-21T20:38:22.208Z,76.30
2019-01-21T20:40:50.673Z,77.42
2019-01-21T20:43:19.221Z,74.45
2019-01-21T20:45:47.741Z,77.22
2019-01-21T20:48:16.283Z,75.47
2019-01-21T20:50:44.811Z,72.27
2019-01-21T20:53:13.491Z,80.75
2019-01-21T20:55:41.989Z,61.75
2019-01-21T20:58:10.662Z,75.52
2019-01-21T21:00:39.143Z,80.17
2019-01-21T21:03:07.722Z,72.50
2019-01-21T21:05:36.268Z,81.78
2019-01-21T21:08:04.861Z,73.75
2019-01-21T21:10:33.307Z,70.35
2019-01-21T21:13:01.753Z,77.70
2019-01-21T21:15:31.867Z,80.00
2019-01-21T21:18:00.525Z,78.17
2019-01-21T21:20:29.305Z,68.40
2019-01-21T21:22:57.892Z,76.53
2019-01-21T21:25:26.391Z,65.42
2019-01-21T21:27:54.840Z,75.52
2019-01-21T21:30:24.892Z,68.55
2019-01-21T21:32:53.632Z,92.40
2019-01-21T21:35:22.392Z,96.20
2019-01-21T21:37:50.862Z,81.82
2019-01-21T21:40:20.012Z,80.22
2019-01-21T21:42:48.631Z,90.47
2019-01-21T21:45:18.711Z,72.25
2019-01-21T21:47:47.191Z,78.33
2019-01-21T21:50:17.115Z,72.75
2019-01-21T21:52:46.486Z,79.55
2019-01-21T21:55:15.102Z,79.58
2019-01-21T21:57:43.677Z,65.70
2019-01-21T22:00:13.626Z,74.87
2019-01-21T22:02:42.075Z,83.03
2019-01-21T22:05:10.757Z,82.72
2019-01-21T22:07:39.342Z,76.47
2019-01-21T22:10:09.360Z,71.95
2019-01-21T22:12:37.942Z,74.47
2019-01-21T22:15:08.779Z,69.70
2019-01-21T22:17:37.242Z,87.05
2019-01-21T22:20:25.020Z,81.10
2019-01-21T22:22:53.467Z,73.80
2019-01-21T22:25:22.672Z,74.40
2019-01-21T22:27:51.153Z,75.17
2019-01-21T22:30:23.986Z,73.40
2019-01-21T22:32:52.443Z,81.08
2019-01-21T22:35:20.955Z,76.65
2019-01-21T22:37:51.010Z,80.45
2019-01-21T22:40:20.855Z,80.05
2019-01-21T22:42:49.412Z,70.50
2019-01-21T22:45:19.218Z,79.67
2019-01-21T22:47:47.666Z,76.02
2019-01-21T22:50:18.060Z,80.25
2019-01-21T22:52:46.614Z,78.28
2019-01-21T22:55:16.272Z,75.78
2019-01-21T22:57:44.807Z,73.20
2019-01-21T23:00:23.834Z,78.22
2019-01-21T23:02:52.343Z,80.35
2019-01-21T23:05:20.797Z,75.57
2019-01-21T23:07:49.247Z,78.40
2019-01-21T23:10:17.859Z,83.10
2019-01-21T23:12:46.342Z,76.40
2019-01-21T23:15:15.358Z,72.45
2019-01-21T23:17:43.916Z,76.70
2019-01-21T23:20:12.411Z,75.72
2019-01-21T23:22:40.871Z,72.45
2019-01-21T23:25:09.364Z,75.75
2019-01-21T23:27:38.813Z,81.95
2019-01-21T23:30:08.780Z,78.67
2019-01-21T23:32:37.262Z,77.58
2019-01-21T23:35:06.461Z,75.00
2019-01-21T23:37:34.936Z,89.52
2019-01-21T23:40:04.958Z,83.55
2019-01-21T23:42:33.542Z,80.60
2019-01-21T23:45:02.010Z,83.72
2019-01-21T23:47:30.490Z,72.75
2019-01-21T23:49:58.943Z,83.15
2019-01-21T23:52:27.404Z,84.00
2019-01-21T23:54:56.253Z,78.57
2019-01-21T23:57:24.751Z,81.05
2019-01-21T23:59:53.216Z,72.87
